Strona główna
METAR-TAF:

METAR-TAF

Lotnisko :

Port lotniczy Sandakan

Sandakan, Malezja

Szerokość geograficzna: 05-54N, Długość geograficzna: 118-04E, wysokość: 12 m

Aktualna obserwacja pogody

Raport powstał 15 minut temu, godzina 04:00 UTC
Wiatr 6 kt od północ, zmienny między północno-północny zachód i północno-północny wschód
Temperatura 28°C
Wilgotność 79%
Ciśnienie 1010 hPa
Widzialność 10 km lub więcej
Mało chmury na wysokości 1000 ft
Rozproszone chmury na wysokości 1600 ft
Przerywane chmury na wysokości 28000 ft

METAR: WBKS 110400Z 36006KT 330V030 9999 FEW010 SCT016 BKN280 28/24 Q1010

czas: 12:15 (04:15 UTC)

Prognoza

Raport powstał 5 godziny i 15 minut temu, godzina 23:00 UTC
Prognoza ważna od 11 godzina 00 UTC do 12 godzina 00 UTC
Wiatr 5 kt od zachodnio-północny zachód
Widzialność 10 km lub więcej
Mało chmury na wysokości 1600 ft
Mało chmury na wysokości 1700 ft, Cumulonimbus.

TAF: WBKS 102300Z 1100/1200 29005KT 9999 FEW016 FEW017CB

Obserwacja i prognoza pogody dla ponad 4000 lotnisk (raport METAR i TAF).

Dostępne stacje oznaczono żółtymi i czerwonymi punktami na mapie.

Najedź kursorem aby zobaczyć nazwę stacji.

Kliknij aby zobaczyć obserwacje i prognozy pogody.

Aby zmienić mapę: kliknij na zielony przycisk z czarnym krzyżykiem, aby powiększyć; na zielony przycisk z myślnikiem, aby pomniejszyć; na zielone strzałki, aby przejść do map sąsiednich.


METAR-TAF: